Time;durP1;ratioP1;P1;durP2;ratioP2;P2;SDS_P1;SDS_P2;PMS_P1;PMS_P2;Temp;Humidity;BMP_temperature;BMP_pressure;BME280_temperature;BME280_humidity;BME280_pressure;Samples;Min_cycle;Max_cycle;Signal;HPM_P1;HPM_P2
2020/12/19 00:00:07;;;;;;;22.57;20.27;;;;;;;5.01;71.36;98516.63;8371701;28;20212;-78
2020/12/19 00:04:10;;;;;;;22.73;20.40;;;;;;;4.81;71.82;98516.88;8370097;28;20222;-78
2020/12/19 00:08:11;;;;;;;20.13;18.13;;;;;;;4.66;72.84;98511.94;8370680;28;20207;-77
2020/12/19 00:12:13;;;;;;;20.67;18.67;;;;;;;4.50;72.91;98495.88;8369947;28;20196;-77
2020/12/19 00:16:15;;;;;;;21.40;19.20;;;;;;;4.73;72.47;98508.44;8370142;28;20204;-77
2020/12/19 00:20:18;;;;;;;21.30;19.10;;;;;;;4.29;73.48;98499.53;8369926;28;20224;-77
2020/12/19 00:24:19;;;;;;;22.53;18.87;;;;;;;4.90;72.02;98498.78;8370219;28;20210;-78
2020/12/19 00:28:21;;;;;;;20.87;18.87;;;;;;;4.49;73.30;98497.59;8370739;28;20548;-77
2020/12/19 00:32:23;;;;;;;22.30;20.00;;;;;;;4.45;73.33;98490.78;8369536;28;20552;-77
2020/12/19 00:36:29;;;;;;;22.23;19.93;;;;;;;4.55;72.85;98488.97;8369537;28;20192;-77
2020/12/19 00:40:31;;;;;;;24.63;22.03;;;;;;;4.42;72.85;98492.56;8370088;28;20234;-78
2020/12/19 00:44:33;;;;;;;21.53;19.37;;;;;;;4.41;74.12;98493.41;8370221;28;20533;-78
2020/12/19 00:48:34;;;;;;;20.13;18.13;;;;;;;4.45;73.63;98488.22;8368910;28;20207;-77
2020/12/19 00:52:37;;;;;;;21.10;18.90;;;;;;;4.56;72.80;98477.84;8370581;28;20239;-77
2020/12/19 00:56:39;;;;;;;21.60;19.47;;;;;;;4.72;72.87;98472.50;8368608;28;20212;-77
2020/12/19 01:00:40;;;;;;;22.53;20.23;;;;;;;4.74;72.95;98468.22;8368627;28;20265;-77
2020/12/19 01:04:42;;;;;;;22.13;19.83;;;;;;;4.58;73.07;98470.13;8368579;28;20231;-77
2020/12/19 01:08:45;;;;;;;20.63;18.63;;;;;;;4.68;72.82;98474.28;8367773;28;20207;-78
2020/12/19 01:13:00;;;;;;;20.47;18.37;;;;;;;5.04;71.46;98483.19;8369102;28;20192;-77
2020/12/19 01:17:04;;;;;;;18.87;16.93;;;;;;;4.97;71.48;98485.88;8367929;28;20200;-77
2020/12/19 01:21:11;;;;;;;20.10;18.10;;;;;;;4.88;71.46;98482.56;8368740;28;20224;-77
2020/12/19 01:25:13;;;;;;;19.67;17.73;;;;;;;4.84;71.90;98480.06;8367426;28;20187;-77
2020/12/19 01:29:15;;;;;;;20.03;18.03;;;;;;;4.85;71.43;98472.31;8367531;28;20208;-76
2020/12/19 01:33:17;;;;;;;20.30;18.17;;;;;;;4.73;72.67;98472.50;8367741;28;20211;-77
2020/12/19 01:37:19;;;;;;;21.03;18.93;;;;;;;4.57;73.07;98469.28;8369898;28;20204;-77
2020/12/19 01:41:22;;;;;;;20.50;18.40;;;;;;;4.67;72.68;98459.75;8367654;28;20560;-77
2020/12/19 01:45:24;;;;;;;21.07;19.03;;;;;;;4.31;73.73;98457.59;8368120;28;20208;-77
2020/12/19 01:49:27;;;;;;;19.73;17.77;;;;;;;4.41;73.37;98445.53;8367105;28;20211;-77
2020/12/19 01:53:29;;;;;;;19.17;17.17;;;;;;;4.43;73.26;98440.38;8367678;28;20240;-77
2020/12/19 01:57:32;;;;;;;20.63;18.43;;;;;;;4.13;74.47;98449.25;8366545;28;20203;-78
2020/12/19 02:01:42;;;;;;;20.17;18.17;;;;;;;4.20;73.06;98427.84;8366991;28;20227;-78
2020/12/19 02:05:44;;;;;;;18.97;17.10;;;;;;;4.18;74.32;98411.63;8366577;28;20643;-78
2020/12/19 02:09:46;;;;;;;18.73;16.83;;;;;;;4.30;73.62;98437.09;8366680;28;20565;-78
2020/12/19 02:13:49;;;;;;;18.27;16.50;;;;;;;4.61;71.65;98447.03;8365502;28;20210;-78
2020/12/19 02:17:50;;;;;;;22.40;18.90;;;;;;;3.73;75.07;98432.56;8366525;28;20203;-78
2020/12/19 02:21:52;;;;;;;18.70;16.83;;;;;;;4.14;73.58;98433.88;8366441;28;20200;-78
2020/12/19 02:25:55;;;;;;;18.53;16.63;;;;;;;3.83;74.39;98435.91;8366100;28;20226;-77
2020/12/19 02:29:57;;;;;;;20.07;17.97;;;;;;;3.61;75.41;98433.53;8368489;28;20214;-77
2020/12/19 02:33:59;;;;;;;19.83;17.73;;;;;;;3.44;75.13;98420.88;8373315;28;20207;-77
2020/12/19 02:38:01;;;;;;;18.90;17.00;;;;;;;3.76;74.65;98429.16;8372387;28;20654;-77
2020/12/19 02:42:03;;;;;;;18.80;17.00;;;;;;;3.78;74.63;98419.72;8372663;28;20245;-77
2020/12/19 02:46:05;;;;;;;20.03;17.93;;;;;;;3.76;74.12;98426.59;8371934;28;20239;-77
2020/12/19 02:50:07;;;;;;;18.37;16.57;;;;;;;3.79;74.53;98411.16;8371811;28;20235;-77
2020/12/19 02:54:08;;;;;;;20.97;18.77;;;;;;;3.69;74.34;98410.41;8372466;28;20206;-77
2020/12/19 02:58:11;;;;;;;18.90;16.97;;;;;;;3.69;74.92;98407.84;8373981;28;20211;-77
2020/12/19 03:02:13;;;;;;;18.03;16.27;;;;;;;3.99;73.33;98411.81;8372439;28;20219;-77
2020/12/19 03:06:14;;;;;;;17.97;16.17;;;;;;;3.98;74.10;98407.56;8372332;28;20229;-76
2020/12/19 03:10:16;;;;;;;19.07;17.07;;;;;;;3.99;73.29;98408.41;8372895;28;20207;-77
2020/12/19 03:14:19;;;;;;;18.03;16.30;;;;;;;4.04;73.37;98409.22;8372305;28;20200;-77
2020/12/19 03:18:21;;;;;;;19.13;17.17;;;;;;;4.10;73.21;98412.56;8371302;28;20227;-76
2020/12/19 03:22:22;;;;;;;17.67;15.97;;;;;;;4.10;73.46;98404.84;8370665;28;20204;-77
2020/12/19 03:26:24;;;;;;;18.33;16.53;;;;;;;4.36;72.03;98411.41;8371322;28;20237;-76
2020/12/19 03:30:27;;;;;;;18.20;16.20;;;;;;;4.44;71.79;98412.16;8370752;28;20553;-76
2020/12/19 03:34:28;;;;;;;18.80;16.80;;;;;;;4.18;72.58;98406.50;8371201;28;20275;-77
2020/12/19 03:38:30;;;;;;;19.00;17.03;;;;;;;4.04;73.90;98412.63;8371176;28;20227;-76
2020/12/19 03:42:32;;;;;;;21.27;18.23;;;;;;;3.96;73.37;98421.25;8369567;28;20693;-76
2020/12/19 03:46:35;;;;;;;18.63;16.73;;;;;;;4.22;72.61;98403.03;8370499;28;20644;-77
2020/12/19 03:50:36;;;;;;;19.33;17.33;;;;;;;4.10;72.92;98396.34;8369191;28;20342;-76
2020/12/19 03:54:38;;;;;;;19.17;17.17;;;;;;;4.12;73.09;98392.03;8370367;28;20200;-78
2020/12/19 03:58:40;;;;;;;19.60;17.50;;;;;;;3.99;74.19;98391.31;8370244;28;20235;-77
2020/12/19 04:02:42;;;;;;;20.83;18.73;;;;;;;4.01;73.33;98381.06;8369784;28;20207;-77
2020/12/19 04:06:44;;;;;;;19.57;17.57;;;;;;;3.88;73.62;98378.63;8370553;28;20215;-78
2020/12/19 04:10:46;;;;;;;20.67;17.80;;;;;;;3.99;73.82;98369.97;8370301;28;20204;-78
2020/12/19 04:14:47;;;;;;;20.40;18.20;;;;;;;3.71;74.82;98368.56;8370012;28;20204;-78
2020/12/19 04:18:50;;;;;;;21.90;18.47;;;;;;;3.66;74.26;98367.75;8369332;28;20231;-79
2020/12/19 04:22:52;;;;;;;22.63;19.23;;;;;;;3.77;73.95;98380.47;8369953;28;20242;-78
2020/12/19 04:26:55;;;;;;;19.53;17.43;;;;;;;3.72;74.10;98382.22;8368614;28;20207;-78
2020/12/19 04:30:56;;;;;;;19.93;17.80;;;;;;;3.70;73.92;98379.66;8369141;28;20211;-78
2020/12/19 04:34:59;;;;;;;20.03;17.83;;;;;;;3.53;74.86;98373.88;8368991;28;20207;-77
2020/12/19 04:39:01;;;;;;;20.00;17.53;;;;;;;3.63;74.92;98375.47;8369016;28;20239;-77
2020/12/19 04:43:13;;;;;;;19.60;17.57;;;;;;;3.60;75.15;98369.50;8369036;28;20214;-77
2020/12/19 04:47:15;;;;;;;20.47;18.13;;;;;;;3.23;76.32;98364.75;8368730;28;20546;-77
2020/12/19 04:51:17;;;;;;;19.97;17.90;;;;;;;3.44;75.61;98369.66;8368038;28;20322;-78
2020/12/19 04:55:20;;;;;;;19.07;17.00;;;;;;;3.77;74.23;98367.66;8368363;28;20196;-78
2020/12/19 04:59:22;;;;;;;19.47;17.37;;;;;;;3.83;74.11;98352.22;8368790;28;20235;-77
2020/12/19 05:03:23;;;;;;;18.60;16.23;;;;;;;3.82;73.62;98360.75;8356280;28;20208;-77
2020/12/19 05:07:26;;;;;;;22.57;17.27;;;;;;;4.17;72.72;98379.16;8334704;28;20208;-78
2020/12/19 05:11:27;;;;;;;20.77;18.17;;;;;;;4.27;71.83;98383.31;8334768;28;20207;-77
2020/12/19 05:15:29;;;;;;;19.93;17.83;;;;;;;4.23;72.60;98366.28;8334396;28;20212;-77
2020/12/19 05:19:31;;;;;;;19.67;17.57;;;;;;;4.23;72.40;98379.94;8334621;28;20795;-78
2020/12/19 05:23:34;;;;;;;19.83;17.73;;;;;;;3.82;74.27;98385.53;8334489;28;20203;-78
2020/12/19 05:27:36;;;;;;;18.83;16.83;;;;;;;4.06;73.33;98380.13;8334332;28;20216;-78
2020/12/19 05:31:38;;;;;;;20.67;18.57;;;;;;;3.88;73.80;98376.06;8334220;28;20200;-78
2020/12/19 05:35:40;;;;;;;19.97;17.83;;;;;;;3.72;74.72;98377.94;8333269;28;20212;-78
2020/12/19 05:39:52;;;;;;;19.43;17.33;;;;;;;4.01;73.57;98370.81;8334100;28;20224;-78
2020/12/19 05:43:54;;;;;;;20.47;17.70;;;;;;;4.17;73.00;98363.75;8334677;28;20200;-78
2020/12/19 05:47:56;;;;;;;21.17;17.90;;;;;;;3.96;73.56;98364.88;8334049;28;20548;-78
2020/12/19 05:52:00;;;;;;;19.63;17.60;;;;;;;4.23;72.70;98368.84;8333894;28;20236;-78
2020/12/19 05:56:02;;;;;;;18.10;16.27;;;;;;;4.07;72.94;98374.16;8333994;28;20200;-77
2020/12/19 06:00:07;;;;;;;18.67;16.67;;;;;;;4.03;72.79;98379.31;8333484;28;20236;-77
2020/12/19 06:04:10;;;;;;;20.07;18.00;;;;;;;4.16;72.90;98375.75;8349675;28;20682;-77
2020/12/19 06:08:19;;;;;;;17.80;16.00;;;;;;;3.76;73.57;98368.50;8366641;28;20554;-77
2020/12/19 06:12:30;;;;;;;20.17;17.37;;;;;;;3.90;73.50;98376.91;8365915;28;20234;-78
2020/12/19 06:16:32;;;;;;;18.27;16.47;;;;;;;3.88;73.27;98383.75;8366117;28;20617;-78
2020/12/19 06:20:36;;;;;;;18.63;16.73;;;;;;;4.07;72.88;98383.53;8366323;28;20270;-78
2020/12/19 06:24:39;;;;;;;17.70;15.90;;;;;;;4.45;71.51;98390.75;8365883;28;20202;-78
2020/12/19 06:28:47;;;;;;;17.83;16.00;;;;;;;4.31;71.70;98382.41;8365856;28;20195;-78
2020/12/19 06:32:49;;;;;;;18.10;16.20;;;;;;;4.00;72.84;98380.22;8365624;28;20554;-77
2020/12/19 06:36:51;;;;;;;18.90;16.03;;;;;;;4.28;72.35;98390.13;8365261;28;20207;-77
2020/12/19 06:40:53;;;;;;;16.80;15.10;;;;;;;4.09;73.12;98392.94;8365995;28;20220;-78
2020/12/19 06:44:55;;;;;;;15.80;14.20;;;;;;;4.16;72.35;98385.16;8365980;28;20211;-78
2020/12/19 06:48:57;;;;;;;16.77;15.17;;;;;;;4.42;71.57;98389.97;8366985;28;20636;-77
2020/12/19 06:53:00;;;;;;;17.33;15.63;;;;;;;4.09;72.18;98392.06;8366063;28;20236;-77
2020/12/19 06:57:02;;;;;;;17.00;15.37;;;;;;;4.16;72.29;98392.84;8365087;28;20199;-77
2020/12/19 07:01:25;;;;;;;14.90;13.50;;;;;;;4.14;71.80;98402.28;8366332;28;20694;-77
2020/12/19 07:05:28;;;;;;;16.70;15.00;;;;;;;3.94;72.68;98408.47;8365442;28;20231;-77
2020/12/19 07:09:30;;;;;;;15.83;14.33;;;;;;;3.83;73.18;98405.19;8365176;28;20211;-77
2020/12/19 07:13:59;;;;;;;15.77;14.07;;;;;;;3.72;73.23;98415.53;8364606;28;20207;-77
2020/12/19 07:18:02;;;;;;;15.93;14.43;;;;;;;3.42;74.44;98417.47;8346281;28;20204;-77
2020/12/19 07:22:04;;;;;;;15.73;14.13;;;;;;;3.40;74.78;98418.38;8371439;28;20545;-77
2020/12/19 07:26:07;;;;;;;15.80;14.07;;;;;;;3.51;74.29;98419.97;8371274;28;20200;-77
2020/12/19 07:30:09;;;;;;;15.90;14.30;;;;;;;3.64;73.60;98420.72;8370729;28;20196;-77
2020/12/19 07:34:11;;;;;;;15.47;13.87;;;;;;;3.70;73.23;98419.81;8371327;28;20200;-77
2020/12/19 07:38:13;;;;;;;14.53;13.13;;;;;;;3.96;72.13;98424.69;8370610;28;20200;-77
2020/12/19 07:42:15;;;;;;;14.93;13.43;;;;;;;4.08;71.65;98426.25;8370629;28;20228;-77
2020/12/19 07:46:17;;;;;;;14.57;13.17;;;;;;;3.36;74.36;98425.22;8371043;28;20230;-77
2020/12/19 07:50:24;;;;;;;14.37;12.97;;;;;;;3.54;73.98;98426.75;8369671;28;20578;-76
2020/12/19 07:54:26;;;;;;;14.60;13.20;;;;;;;3.58;73.72;98431.03;8370362;28;20195;-77
2020/12/19 07:58:32;;;;;;;14.43;13.00;;;;;;;3.46;73.84;98426.84;8369527;28;20200;-77
2020/12/19 08:02:37;;;;;;;14.47;13.07;;;;;;;3.43;74.16;98439.69;8374308;28;20187;-77
2020/12/19 08:06:42;;;;;;;13.97;12.67;;;;;;;3.47;73.80;98428.53;8367100;28;20223;-77
2020/12/19 08:11:03;;;;;;;13.17;11.97;;;;;;;3.33;74.31;98426.09;8366790;28;20282;-78
2020/12/19 08:15:06;;;;;;;20.93;18.97;;;;;;;3.88;72.90;98431.56;8372125;28;20196;-79
2020/12/19 08:19:09;;;;;;;13.80;12.60;;;;;;;3.15;75.27;98430.50;8376403;28;20223;-79
2020/12/19 08:23:13;;;;;;;13.20;11.90;;;;;;;3.58;73.72;98436.16;8371584;28;20206;-77
2020/12/19 08:27:49;;;;;;;13.20;11.80;;;;;;;3.54;73.13;98447.25;8367610;28;20575;-77
2020/12/19 08:31:52;;;;;;;13.73;12.43;;;;;;;3.80;72.51;98436.78;8245360;28;20210;-77
2020/12/19 08:35:54;;;;;;;13.07;11.87;;;;;;;3.82;72.75;98444.47;8300498;28;20681;-78
2020/12/19 08:40:07;;;;;;;12.97;11.73;;;;;;;3.80;72.17;98441.91;8370077;28;20215;-78
2020/12/19 08:44:23;;;;;;;12.30;10.90;;;;;;;3.69;72.67;98433.47;8368764;28;20191;-78
2020/12/19 08:48:26;;;;;;;13.60;12.30;;;;;;;3.69;72.95;98436.91;8368565;28;20227;-79
2020/12/19 08:52:29;;;;;;;12.90;11.60;;;;;;;3.81;72.53;98437.63;8368353;28;20274;-78
2020/12/19 08:56:35;;;;;;;12.47;11.27;;;;;;;3.74;72.46;98446.25;8367272;28;20207;-78
2020/12/19 09:00:38;;;;;;;11.90;10.70;;;;;;;4.01;71.80;98455.38;8367847;28;20216;-78
2020/12/19 09:04:47;;;;;;;12.10;10.90;;;;;;;4.01;71.68;98452.81;8369925;28;20679;-78
2020/12/19 09:08:49;;;;;;;12.73;11.50;;;;;;;3.80;72.04;98457.28;8368855;28;20188;-78
2020/12/19 09:13:22;;;;;;;12.13;10.83;;;;;;;3.84;71.42;98461.50;8366849;28;20210;-78
2020/12/19 09:17:28;;;;;;;13.00;10.80;;;;;;;3.86;72.78;98466.63;8315396;28;20246;-78
2020/12/19 09:21:29;;;;;;;12.70;11.50;;;;;;;3.87;71.80;98465.78;8366843;28;20224;-77
2020/12/19 09:25:31;;;;;;;11.83;10.73;;;;;;;3.67;72.83;98473.63;8367367;28;20203;-77
2020/12/19 09:29:34;;;;;;;11.10;10.07;;;;;;;3.57;73.18;98475.41;8367619;28;20208;-77
2020/12/19 09:33:35;;;;;;;13.77;12.47;;;;;;;3.42;73.77;98471.25;8367044;28;20204;-76
2020/12/19 09:37:37;;;;;;;12.43;11.20;;;;;;;3.74;72.81;98477.84;8366946;28;20214;-77
2020/12/19 09:41:57;;;;;;;25.23;22.47;;;;;;;3.74;73.39;98475.28;8366944;28;20302;-77
2020/12/19 09:46:00;;;;;;;14.53;13.03;;;;;;;3.78;72.81;98465.84;8367649;28;20207;-79
2020/12/19 09:50:01;;;;;;;11.10;10.10;;;;;;;4.02;72.35;98470.75;8367400;28;20235;-79
2020/12/19 09:54:03;;;;;;;16.63;14.93;;;;;;;3.97;70.99;98466.53;8368031;28;20200;-78
2020/12/19 09:58:05;;;;;;;14.40;12.97;;;;;;;3.88;71.91;98470.88;8367082;28;20203;-79
2020/12/19 10:02:07;;;;;;;12.57;11.30;;;;;;;3.79;72.61;98459.84;8366827;28;20239;-78
2020/12/19 10:06:09;;;;;;;13.10;11.73;;;;;;;4.14;71.28;98464.63;8360209;28;20220;-77
2020/12/19 10:10:11;;;;;;;12.77;11.57;;;;;;;3.85;71.36;98460.66;8367342;28;20235;-78
2020/12/19 10:14:13;;;;;;;13.37;12.07;;;;;;;3.83;71.76;98456.41;8365635;28;20241;-78
2020/12/19 10:18:15;;;;;;;11.23;10.20;;;;;;;3.94;71.23;98459.72;8367579;28;20656;-77
2020/12/19 10:22:17;;;;;;;10.17;9.20;;;;;;;4.06;70.51;98462.16;8366184;28;20297;-77
2020/12/19 10:26:20;;;;;;;11.33;10.30;;;;;;;3.96;70.72;98452.00;8365596;28;20211;-78
2020/12/19 10:30:21;;;;;;;10.90;9.90;;;;;;;4.02;71.15;98447.69;8366633;28;20203;-77
2020/12/19 10:34:24;;;;;;;12.50;9.17;;;;;;;3.92;71.12;98449.50;8365497;28;20250;-77
2020/12/19 10:38:26;;;;;;;10.53;9.53;;;;;;;4.13;71.22;98442.41;8366163;28;20207;-79
2020/12/19 10:42:33;;;;;;;11.13;9.97;;;;;;;3.83;71.36;98441.88;8366800;28;20294;-78
2020/12/19 10:46:35;;;;;;;10.47;9.47;;;;;;;3.95;71.06;98433.22;8368446;28;20206;-79
2020/12/19 10:50:37;;;;;;;9.73;8.73;;;;;;;3.75;72.52;98430.88;8370249;28;20238;-78
2020/12/19 10:54:39;;;;;;;10.60;9.50;;;;;;;3.88;71.62;98434.13;8373488;28;20204;-78
2020/12/19 10:58:41;;;;;;;10.73;9.73;;;;;;;3.96;71.34;98427.25;8373144;28;20218;-78
2020/12/19 11:02:42;;;;;;;10.03;9.03;;;;;;;4.00;70.79;98422.91;8373556;28;20276;-78
2020/12/19 11:06:45;;;;;;;10.00;9.00;;;;;;;3.96;70.85;98424.69;8373938;28;20298;-78
2020/12/19 11:10:47;;;;;;;8.57;7.77;;;;;;;4.04;71.58;98415.19;8372639;28;20207;-79
2020/12/19 11:14:49;;;;;;;8.57;7.77;;;;;;;4.14;70.67;98405.69;8373975;28;20219;-79
2020/12/19 11:18:51;;;;;;;8.80;8.10;;;;;;;4.15;70.89;98401.38;8374140;28;20200;-79
2020/12/19 11:22:53;;;;;;;8.90;8.10;;;;;;;4.19;70.90;98397.91;8373663;28;20235;-78
2020/12/19 11:26:55;;;;;;;9.13;8.10;;;;;;;4.34;70.30;98407.16;8371806;28;20235;-78
2020/12/19 11:30:57;;;;;;;8.47;7.67;;;;;;;4.27;70.21;98380.75;8371640;28;20647;-79
2020/12/19 11:34:59;;;;;;;8.60;7.80;;;;;;;4.48;69.54;98375.34;8370665;28;20199;-78
2020/12/19 11:39:01;;;;;;;8.33;7.53;;;;;;;4.43;69.84;98389.94;8371394;28;20200;-78
2020/12/19 11:43:10;;;;;;;9.00;8.20;;;;;;;4.22;69.88;98393.59;8372515;28;20546;-78
2020/12/19 11:47:12;;;;;;;8.27;7.47;;;;;;;4.23;70.08;98395.31;8372856;28;20203;-78
2020/12/19 11:51:14;;;;;;;10.67;7.80;;;;;;;4.24;70.16;98391.88;8373237;28;20239;-77
2020/12/19 11:55:16;;;;;;;9.13;8.23;;;;;;;4.31;70.37;98390.94;8374777;28;20210;-78
2020/12/19 11:59:18;;;;;;;10.50;9.50;;;;;;;4.34;70.19;98391.75;8370584;28;20208;-78
2020/12/19 12:03:20;;;;;;;8.90;7.77;;;;;;;4.36;69.92;98388.34;8369030;28;20667;-79
2020/12/19 12:07:25;;;;;;;8.30;7.50;;;;;;;4.37;69.82;98389.19;8370806;28;20191;-79
2020/12/19 12:11:29;;;;;;;8.73;7.90;;;;;;;4.23;69.84;98379.94;8369993;28;20204;-78
2020/12/19 12:15:30;;;;;;;8.40;7.60;;;;;;;4.17;70.62;98374.03;8370282;28;20205;-78
2020/12/19 12:19:32;;;;;;;8.60;7.80;;;;;;;4.24;70.43;98373.09;8370142;28;20220;-78
2020/12/19 12:23:34;;;;;;;7.83;7.13;;;;;;;4.21;70.36;98368.00;8370082;28;20211;-79
2020/12/19 12:27:37;;;;;;;8.30;6.97;;;;;;;4.20;70.79;98362.00;8371152;28;20204;-79
2020/12/19 12:31:40;;;;;;;8.23;7.23;;;;;;;4.01;70.71;98360.56;8371293;28;20219;-79
2020/12/19 12:35:42;;;;;;;7.67;6.97;;;;;;;4.15;70.83;98351.00;8371305;28;20200;-77
2020/12/19 12:39:44;;;;;;;7.50;6.70;;;;;;;4.25;70.93;98356.84;8368772;28;20246;-77
2020/12/19 12:43:48;;;;;;;7.87;7.10;;;;;;;4.48;70.34;98341.16;8368474;28;20204;-78
2020/12/19 12:47:50;;;;;;;7.70;7.00;;;;;;;4.23;69.98;98343.22;8382945;28;20200;-81
2020/12/19 12:51:53;;;;;;;8.00;7.30;;;;;;;3.99;71.61;98332.38;8383201;28;20231;-78
2020/12/19 12:55:58;;;;;;;6.70;6.10;;;;;;;4.52;70.64;98344.53;8361179;28;20235;-79
2020/12/19 13:00:01;;;;;;;7.40;6.73;;;;;;;4.50;69.62;98353.06;8368844;28;20585;-80
2020/12/19 13:04:02;;;;;;;8.27;7.47;;;;;;;4.73;69.02;98353.63;8386992;28;20697;-78
2020/12/19 13:08:04;;;;;;;7.30;6.70;;;;;;;4.67;68.35;98357.97;8403160;28;20214;-79
2020/12/19 13:12:06;;;;;;;7.40;6.77;;;;;;;4.42;69.51;98344.66;8401587;28;20206;-79
2020/12/19 13:16:08;;;;;;;7.70;7.00;;;;;;;4.54;69.37;98353.06;8402089;28;20206;-79
2020/12/19 13:20:11;;;;;;;7.43;6.83;;;;;;;4.47;69.45;98348.00;8400757;28;20222;-79
2020/12/19 13:24:13;;;;;;;7.50;6.80;;;;;;;4.70;69.03;98355.38;8400625;28;20229;-79
2020/12/19 13:28:15;;;;;;;7.93;7.13;;;;;;;4.75;68.47;98352.72;8400477;28;20655;-79
2020/12/19 13:32:17;;;;;;;7.93;7.23;;;;;;;4.77;69.10;98351.00;8400621;28;20653;-79
2020/12/19 13:36:19;;;;;;;7.87;7.07;;;;;;;4.86;68.52;98357.72;8401472;28;20207;-79
2020/12/19 13:40:21;;;;;;;8.37;7.57;;;;;;;4.69;68.88;98363.94;8399502;28;20231;-78
2020/12/19 13:44:23;;;;;;;8.40;7.60;;;;;;;4.54;68.96;98364.16;8399547;28;20199;-79
2020/12/19 13:48:25;;;;;;;10.67;8.50;;;;;;;4.64;68.81;98367.44;8399898;28;20210;-78
2020/12/19 13:52:27;;;;;;;8.57;7.60;;;;;;;4.62;69.20;98364.88;8400326;28;20227;-79
2020/12/19 13:56:29;;;;;;;8.90;8.10;;;;;;;4.52;69.49;98362.47;8399568;28;20207;-78
2020/12/19 14:00:30;;;;;;;9.00;8.20;;;;;;;4.53;69.39;98367.56;8399003;28;20227;-79
2020/12/19 14:04:34;;;;;;;9.53;8.53;;;;;;;4.65;69.80;98371.72;8398736;28;20223;-79
2020/12/19 14:08:35;;;;;;;9.27;8.43;;;;;;;4.64;69.47;98370.84;8399182;28;20202;-78
2020/12/19 14:12:37;;;;;;;9.30;8.40;;;;;;;4.78;68.99;98372.34;8399024;28;20210;-79
2020/12/19 14:16:39;;;;;;;9.00;8.20;;;;;;;4.77;69.13;98375.81;8398936;28;20205;-78
2020/12/19 14:20:42;;;;;;;9.43;8.53;;;;;;;4.57;69.72;98364.13;8398891;28;20682;-79
2020/12/19 14:24:45;;;;;;;9.07;8.20;;;;;;;4.43;70.13;98368.56;8398453;28;20245;-78
2020/12/19 14:28:47;;;;;;;8.60;7.80;;;;;;;4.57;69.42;98370.94;8399364;28;20198;-78
2020/12/19 14:32:49;;;;;;;8.30;7.60;;;;;;;4.47;69.76;98373.66;8398857;28;20560;-79
2020/12/19 14:36:54;;;;;;;8.83;8.10;;;;;;;4.48;69.55;98367.66;8398847;28;20222;-78
2020/12/19 14:40:55;;;;;;;8.60;7.90;;;;;;;4.59;69.52;98370.06;8398801;28;20724;-79
2020/12/19 14:45:00;;;;;;;9.53;8.37;;;;;;;4.46;69.65;98363.41;8399399;28;20233;-79
2020/12/19 14:49:18;;;;;;;8.47;7.67;;;;;;;4.42;70.15;98361.75;8398968;28;20524;-79
2020/12/19 14:53:21;;;;;;;8.57;7.77;;;;;;;4.10;70.47;98368.13;8399357;28;20230;-79
2020/12/19 14:57:22;;;;;;;8.77;7.97;;;;;;;4.16;70.64;98370.63;8399523;28;20202;-79
2020/12/19 15:01:25;;;;;;;8.50;7.67;;;;;;;4.24;71.05;98362.84;8399059;28;20230;-79
2020/12/19 15:05:27;;;;;;;9.00;8.17;;;;;;;4.26;71.08;98358.53;8399832;28;20273;-79
2020/12/19 15:09:30;;;;;;;17.87;13.47;;;;;;;4.28;70.73;98362.78;8398725;28;20237;-79
2020/12/19 15:13:31;;;;;;;15.57;12.60;;;;;;;4.01;71.08;98368.25;8373421;28;20538;-79
2020/12/19 15:17:33;;;;;;;13.53;10.27;;;;;;;3.72;72.12;98364.28;8375738;28;20262;-78
2020/12/19 15:21:36;;;;;;;8.93;8.03;;;;;;;4.02;71.64;98349.44;8348447;28;20250;-78
2020/12/19 15:25:38;;;;;;;8.30;7.50;;;;;;;4.18;71.03;98379.13;8368925;28;20236;-79
2020/12/19 15:29:40;;;;;;;8.23;7.43;;;;;;;4.07;71.02;98401.47;8373893;28;20215;-80
2020/12/19 15:33:42;;;;;;;9.43;8.00;;;;;;;4.06;71.04;98397.25;8372897;28;20203;-78
2020/12/19 15:37:44;;;;;;;11.40;8.50;;;;;;;3.79;71.58;98377.88;8369222;28;20628;-78
2020/12/19 15:41:47;;;;;;;7.30;6.70;;;;;;;4.19;70.26;98398.78;8370793;28;20265;-79
2020/12/19 15:45:49;;;;;;;7.57;6.87;;;;;;;4.16;70.95;98405.66;8372134;28;20206;-79
2020/12/19 15:49:51;;;;;;;7.20;6.50;;;;;;;4.15;71.04;98409.94;8371425;28;20245;-78
2020/12/19 15:53:52;;;;;;;7.23;6.53;;;;;;;4.23;70.48;98402.16;8370942;28;20187;-78
2020/12/19 15:57:55;;;;;;;7.90;7.20;;;;;;;3.91;71.32;98408.50;8372286;28;20195;-80
2020/12/19 16:01:57;;;;;;;6.87;6.20;;;;;;;4.07;70.91;98412.59;8371444;28;20231;-78
2020/12/19 16:05:59;;;;;;;7.50;6.80;;;;;;;4.09;70.37;98421.13;8403457;28;20305;-78
2020/12/19 16:10:01;;;;;;;7.63;6.80;;;;;;;4.23;70.03;98430.38;8403501;28;20203;-78
2020/12/19 16:14:04;;;;;;;8.07;6.93;;;;;;;4.39;69.72;98444.69;8403027;28;20604;-78
2020/12/19 16:18:07;;;;;;;9.17;7.27;;;;;;;4.42;69.64;98447.22;8354581;28;20224;-78
2020/12/19 16:22:09;;;;;;;8.97;8.07;;;;;;;4.44;69.35;98442.09;8368921;28;20219;-78
2020/12/19 16:26:11;;;;;;;10.50;8.80;;;;;;;4.32;69.77;98445.63;8369291;28;20207;-78
2020/12/19 16:30:14;;;;;;;8.80;8.00;;;;;;;4.60;68.78;98445.31;8369135;28;20204;-78
2020/12/19 16:34:17;;;;;;;8.67;7.77;;;;;;;4.72;67.56;98452.81;8370922;28;20223;-78
2020/12/19 16:38:19;;;;;;;9.10;8.30;;;;;;;4.69;67.62;98447.75;8373218;28;20206;-79
2020/12/19 16:42:20;;;;;;;9.17;8.30;;;;;;;4.63;68.15;98447.84;8370723;28;20652;-78
2020/12/19 16:46:25;;;;;;;8.90;8.10;;;;;;;4.47;68.75;98453.16;8371783;28;20227;-78
2020/12/19 16:50:26;;;;;;;8.93;8.10;;;;;;;4.25;68.97;98455.13;8370580;28;20254;-78
2020/12/19 16:54:28;;;;;;;9.27;8.40;;;;;;;4.00;70.09;98446.84;8373721;28;20200;-78
2020/12/19 16:58:30;;;;;;;9.60;8.70;;;;;;;4.29;69.12;98456.78;8370879;28;20294;-78
2020/12/19 17:02:32;;;;;;;9.60;8.70;;;;;;;4.15;68.74;98460.34;8369925;28;20563;-78
2020/12/19 17:06:34;;;;;;;10.90;8.90;;;;;;;4.33;68.62;98461.88;8371953;28;20215;-78
2020/12/19 17:10:36;;;;;;;9.20;8.40;;;;;;;4.15;69.29;98457.78;8372917;28;20211;-79
2020/12/19 17:14:38;;;;;;;11.63;10.43;;;;;;;3.63;70.07;98457.41;8369489;28;20200;-78
2020/12/19 17:18:41;;;;;;;10.63;9.63;;;;;;;3.90;70.04;98456.34;8369248;28;20206;-78
2020/12/19 17:22:43;;;;;;;10.77;9.67;;;;;;;4.22;68.61;98479.94;8369168;28;20705;-78
2020/12/19 17:26:44;;;;;;;10.07;9.17;;;;;;;4.08;69.18;98480.09;8370002;28;20223;-78
2020/12/19 17:30:46;;;;;;;13.47;10.90;;;;;;;4.05;69.89;98474.97;8366940;28;20234;-77
2020/12/19 17:34:49;;;;;;;11.47;9.90;;;;;;;4.08;69.46;98482.66;8364853;28;20192;-77
2020/12/19 17:38:51;;;;;;;10.73;9.63;;;;;;;4.03;69.74;98480.13;8367603;28;20204;-78
2020/12/19 17:42:52;;;;;;;10.30;9.30;;;;;;;3.91;69.51;98475.97;8366146;28;20235;-76
2020/12/19 17:46:54;;;;;;;12.25;11.05;;;;;;;4.27;68.81;98493.56;8365491;28;20889;-76
2020/12/19 17:50:56;;;;;;;11.50;10.30;;;;;;;4.07;68.82;98492.06;8366561;28;20228;-76
2020/12/19 17:54:59;;;;;;;11.17;10.07;;;;;;;4.05;69.41;98483.50;8364067;28;20211;-76
2020/12/19 17:59:00;;;;;;;11.50;10.40;;;;;;;3.76;69.76;98475.25;8369826;28;20203;-78
2020/12/19 18:03:02;;;;;;;12.20;11.00;;;;;;;3.94;70.18;98474.22;8365596;28;20219;-78
2020/12/19 18:07:05;;;;;;;10.63;9.63;;;;;;;4.09;69.07;98492.91;8333058;28;20232;-78
2020/12/19 18:11:07;;;;;;;11.50;10.37;;;;;;;4.31;68.40;98516.59;8335898;28;20204;-78
2020/12/19 18:15:08;;;;;;;11.10;9.90;;;;;;;3.63;70.28;98490.72;8363887;28;20553;-78
2020/12/19 18:19:10;;;;;;;10.30;9.40;;;;;;;3.95;69.73;98502.41;8364885;28;20251;-78
2020/12/19 18:23:14;;;;;;;13.10;11.90;;;;;;;3.66;70.65;98477.91;8365475;28;20663;-78
2020/12/19 18:27:17;;;;;;;11.20;10.20;;;;;;;4.05;69.73;98488.63;8365386;28;20643;-78
2020/12/19 18:31:20;;;;;;;11.30;10.30;;;;;;;3.64;70.19;98491.59;8365269;28;20211;-78
2020/12/19 18:35:22;;;;;;;11.40;10.30;;;;;;;3.56;70.79;98496.78;8362502;28;20222;-78
2020/12/19 18:39:25;;;;;;;10.67;9.67;;;;;;;3.63;70.08;98493.28;8368712;28;20235;-78
2020/12/19 18:43:26;;;;;;;11.17;10.13;;;;;;;3.58;70.02;98500.19;8332081;28;20319;-78
2020/12/19 18:47:28;;;;;;;11.50;10.50;;;;;;;3.28;71.37;98488.44;8362501;28;20204;-78
2020/12/19 18:51:30;;;;;;;10.90;9.90;;;;;;;3.20;71.51;98479.94;8364688;28;20658;-78
2020/12/19 18:55:33;;;;;;;12.23;11.03;;;;;;;3.50;70.76;98489.13;8365858;28;20203;-78
2020/12/19 18:59:34;;;;;;;12.03;10.83;;;;;;;3.56;70.47;98488.22;8364996;28;20199;-78